sensor_id;sensor_type;location;lat;lon;timestamp;P1;durP1;ratioP1;P2;durP2;ratioP2
19587;SDS011;9940;47.252;8.696;2023-03-14T00:01:47;1.52;;;0.63;;
19587;SDS011;9940;47.252;8.696;2023-03-14T00:04:13;5.25;;;1.15;;
19587;SDS011;9940;47.252;8.696;2023-03-14T00:06:39;2.72;;;0.90;;
19587;SDS011;9940;47.252;8.696;2023-03-14T00:09:07;4.20;;;1.35;;
19587;SDS011;9940;47.252;8.696;2023-03-14T00:11:35;1.55;;;0.70;;
19587;SDS011;9940;47.252;8.696;2023-03-14T00:14:00;1.98;;;0.40;;
19587;SDS011;9940;47.252;8.696;2023-03-14T00:16:27;1.33;;;0.57;;
19587;SDS011;9940;47.252;8.696;2023-03-14T00:18:53;2.00;;;0.57;;
19587;SDS011;9940;47.252;8.696;2023-03-14T00:21:19;3.10;;;0.60;;
19587;SDS011;9940;47.252;8.696;2023-03-14T00:23:44;2.70;;;0.70;;
19587;SDS011;9940;47.252;8.696;2023-03-14T00:26:14;1.30;;;0.40;;
19587;SDS011;9940;47.252;8.696;2023-03-14T00:28:41;0.80;;;0.30;;
19587;SDS011;9940;47.252;8.696;2023-03-14T00:31:12;0.50;;;0.10;;
19587;SDS011;9940;47.252;8.696;2023-03-14T00:33:39;0.40;;;0.10;;
19587;SDS011;9940;47.252;8.696;2023-03-14T00:36:11;1.98;;;0.13;;
19587;SDS011;9940;47.252;8.696;2023-03-14T00:38:43;0.35;;;0.25;;
19587;SDS011;9940;47.252;8.696;2023-03-14T00:41:13;0.22;;;0.08;;
19587;SDS011;9940;47.252;8.696;2023-03-14T00:43:43;0.82;;;0.10;;
19587;SDS011;9940;47.252;8.696;2023-03-14T00:46:09;0.10;;;0.10;;
19587;SDS011;9940;47.252;8.696;2023-03-14T00:48:35;0.20;;;0.10;;
19587;SDS011;9940;47.252;8.696;2023-03-14T00:51:07;0.00;;;0.00;;
19587;SDS011;9940;47.252;8.696;2023-03-14T00:53:38;0.52;;;0.10;;
19587;SDS011;9940;47.252;8.696;2023-03-14T00:56:09;0.08;;;0.05;;
19587;SDS011;9940;47.252;8.696;2023-03-14T00:58:35;0.98;;;0.00;;
19587;SDS011;9940;47.252;8.696;2023-03-14T01:01:07;0.00;;;0.00;;
19587;SDS011;9940;47.252;8.696;2023-03-14T01:03:36;0.03;;;0.00;;
19587;SDS011;9940;47.252;8.696;2023-03-14T01:06:06;0.10;;;0.10;;
19587;SDS011;9940;47.252;8.696;2023-03-14T01:08:32;2.30;;;0.00;;
19587;SDS011;9940;47.252;8.696;2023-03-14T01:11:04;0.10;;;0.00;;
19587;SDS011;9940;47.252;8.696;2023-03-14T01:13:33;0.10;;;0.00;;
19587;SDS011;9940;47.252;8.696;2023-03-14T01:16:03;0.10;;;0.10;;
19587;SDS011;9940;47.252;8.696;2023-03-14T01:18:30;0.15;;;0.00;;
19587;SDS011;9940;47.252;8.696;2023-03-14T01:20:56;0.00;;;0.00;;
19587;SDS011;9940;47.252;8.696;2023-03-14T01:23:22;0.22;;;0.00;;
19587;SDS011;9940;47.252;8.696;2023-03-14T01:25:49;0.47;;;0.00;;
19587;SDS011;9940;47.252;8.696;2023-03-14T01:28:15;0.40;;;0.10;;
19587;SDS011;9940;47.252;8.696;2023-03-14T01:30:43;0.73;;;0.10;;
19587;SDS011;9940;47.252;8.696;2023-03-14T01:33:12;0.38;;;0.00;;
19587;SDS011;9940;47.252;8.696;2023-03-14T01:35:39;0.00;;;0.00;;
19587;SDS011;9940;47.252;8.696;2023-03-14T01:38:05;0.00;;;0.00;;
19587;SDS011;9940;47.252;8.696;2023-03-14T01:43:37;0.00;;;0.00;;
19587;SDS011;9940;47.252;8.696;2023-03-14T01:48:37;0.40;;;0.00;;
19587;SDS011;9940;47.252;8.696;2023-03-14T01:51:07;0.10;;;0.00;;
19587;SDS011;9940;47.252;8.696;2023-03-14T01:53:36;0.30;;;0.10;;
19587;SDS011;9940;47.252;8.696;2023-03-14T01:56:08;0.15;;;0.03;;
19587;SDS011;9940;47.252;8.696;2023-03-14T01:58:35;0.25;;;0.10;;
19587;SDS011;9940;47.252;8.696;2023-03-14T02:01:06;1.00;;;0.00;;
19587;SDS011;9940;47.252;8.696;2023-03-14T02:06:46;0.00;;;0.00;;
19587;SDS011;9940;47.252;8.696;2023-03-14T02:09:14;0.17;;;0.00;;
19587;SDS011;9940;47.252;8.696;2023-03-14T02:11:42;0.90;;;0.10;;
19587;SDS011;9940;47.252;8.696;2023-03-14T02:14:10;0.43;;;0.05;;
19587;SDS011;9940;47.252;8.696;2023-03-14T02:16:39;0.03;;;0.03;;
19587;SDS011;9940;47.252;8.696;2023-03-14T02:19:08;0.20;;;0.10;;
19587;SDS011;9940;47.252;8.696;2023-03-14T02:24:32;0.30;;;0.03;;
19587;SDS011;9940;47.252;8.696;2023-03-14T02:29:41;0.13;;;0.03;;
19587;SDS011;9940;47.252;8.696;2023-03-14T02:32:22;0.10;;;0.00;;
19587;SDS011;9940;47.252;8.696;2023-03-14T02:34:53;0.00;;;0.00;;
19587;SDS011;9940;47.252;8.696;2023-03-14T02:37:24;0.30;;;0.00;;
19587;SDS011;9940;47.252;8.696;2023-03-14T02:39:57;0.70;;;0.10;;
19587;SDS011;9940;47.252;8.696;2023-03-14T02:42:25;1.38;;;0.00;;
19587;SDS011;9940;47.252;8.696;2023-03-14T02:44:52;0.40;;;0.30;;
19587;SDS011;9940;47.252;8.696;2023-03-14T02:47:33;0.20;;;0.10;;
19587;SDS011;9940;47.252;8.696;2023-03-14T02:50:18;0.20;;;0.10;;
19587;SDS011;9940;47.252;8.696;2023-03-14T02:52:47;0.10;;;0.10;;
19587;SDS011;9940;47.252;8.696;2023-03-14T02:55:12;0.10;;;0.10;;
19587;SDS011;9940;47.252;8.696;2023-03-14T02:57:38;0.05;;;0.00;;
19587;SDS011;9940;47.252;8.696;2023-03-14T03:00:09;0.20;;;0.00;;
19587;SDS011;9940;47.252;8.696;2023-03-14T03:02:35;0.10;;;0.00;;
19587;SDS011;9940;47.252;8.696;2023-03-14T03:05:01;0.00;;;0.00;;
19587;SDS011;9940;47.252;8.696;2023-03-14T03:07:29;0.00;;;0.00;;
19587;SDS011;9940;47.252;8.696;2023-03-14T03:09:54;0.00;;;0.00;;
19587;SDS011;9940;47.252;8.696;2023-03-14T03:12:22;0.57;;;0.10;;
19587;SDS011;9940;47.252;8.696;2023-03-14T03:14:50;0.68;;;0.20;;
19587;SDS011;9940;47.252;8.696;2023-03-14T03:17:18;0.38;;;0.20;;
19587;SDS011;9940;47.252;8.696;2023-03-14T03:19:43;1.30;;;0.03;;
19587;SDS011;9940;47.252;8.696;2023-03-14T03:22:11;0.38;;;0.08;;
19587;SDS011;9940;47.252;8.696;2023-03-14T03:24:37;1.10;;;0.00;;
19587;SDS011;9940;47.252;8.696;2023-03-14T03:27:05;0.17;;;0.17;;
19587;SDS011;9940;47.252;8.696;2023-03-14T03:29:33;0.55;;;0.00;;
19587;SDS011;9940;47.252;8.696;2023-03-14T03:31:58;0.00;;;0.00;;
19587;SDS011;9940;47.252;8.696;2023-03-14T03:34:24;0.32;;;0.03;;
19587;SDS011;9940;47.252;8.696;2023-03-14T03:36:50;0.32;;;0.10;;
19587;SDS011;9940;47.252;8.696;2023-03-14T03:39:15;0.10;;;0.00;;
19587;SDS011;9940;47.252;8.696;2023-03-14T03:41:41;0.98;;;0.00;;
19587;SDS011;9940;47.252;8.696;2023-03-14T03:44:06;0.30;;;0.08;;
19587;SDS011;9940;47.252;8.696;2023-03-14T03:46:34;0.00;;;0.00;;
19587;SDS011;9940;47.252;8.696;2023-03-14T03:49:00;0.32;;;0.03;;
19587;SDS011;9940;47.252;8.696;2023-03-14T03:51:26;0.17;;;0.03;;
19587;SDS011;9940;47.252;8.696;2023-03-14T03:53:52;0.10;;;0.10;;
19587;SDS011;9940;47.252;8.696;2023-03-14T03:56:19;0.15;;;0.00;;
19587;SDS011;9940;47.252;8.696;2023-03-14T03:58:50;1.08;;;0.05;;
19587;SDS011;9940;47.252;8.696;2023-03-14T04:01:15;0.73;;;0.10;;
19587;SDS011;9940;47.252;8.696;2023-03-14T04:03:41;0.00;;;0.00;;
19587;SDS011;9940;47.252;8.696;2023-03-14T04:06:10;0.10;;;0.10;;
19587;SDS011;9940;47.252;8.696;2023-03-14T04:08:39;1.45;;;0.00;;
19587;SDS011;9940;47.252;8.696;2023-03-14T04:11:08;0.13;;;0.05;;
19587;SDS011;9940;47.252;8.696;2023-03-14T04:13:36;0.00;;;0.00;;
19587;SDS011;9940;47.252;8.696;2023-03-14T04:16:02;0.00;;;0.00;;
19587;SDS011;9940;47.252;8.696;2023-03-14T04:18:28;0.30;;;0.20;;
19587;SDS011;9940;47.252;8.696;2023-03-14T04:20:55;0.05;;;0.05;;
19587;SDS011;9940;47.252;8.696;2023-03-14T04:23:22;0.15;;;0.00;;
19587;SDS011;9940;47.252;8.696;2023-03-14T04:25:49;0.00;;;0.00;;
19587;SDS011;9940;47.252;8.696;2023-03-14T04:31:37;0.13;;;0.10;;
19587;SDS011;9940;47.252;8.696;2023-03-14T04:34:03;0.65;;;0.05;;
19587;SDS011;9940;47.252;8.696;2023-03-14T04:36:28;0.32;;;0.10;;
19587;SDS011;9940;47.252;8.696;2023-03-14T04:38:56;0.30;;;0.10;;
19587;SDS011;9940;47.252;8.696;2023-03-14T04:41:22;0.20;;;0.10;;
19587;SDS011;9940;47.252;8.696;2023-03-14T04:43:50;0.20;;;0.10;;
19587;SDS011;9940;47.252;8.696;2023-03-14T04:46:17;1.20;;;0.10;;
19587;SDS011;9940;47.252;8.696;2023-03-14T04:48:43;0.10;;;0.10;;
19587;SDS011;9940;47.252;8.696;2023-03-14T04:51:11;0.10;;;0.10;;
19587;SDS011;9940;47.252;8.696;2023-03-14T04:53:37;0.10;;;0.00;;
19587;SDS011;9940;47.252;8.696;2023-03-14T04:56:05;0.22;;;0.20;;
19587;SDS011;9940;47.252;8.696;2023-03-14T04:58:31;2.67;;;0.22;;
19587;SDS011;9940;47.252;8.696;2023-03-14T05:01:01;1.90;;;0.15;;
19587;SDS011;9940;47.252;8.696;2023-03-14T05:03:28;0.50;;;0.10;;
19587;SDS011;9940;47.252;8.696;2023-03-14T05:05:54;0.30;;;0.10;;
19587;SDS011;9940;47.252;8.696;2023-03-14T05:08:20;0.80;;;0.10;;
19587;SDS011;9940;47.252;8.696;2023-03-14T05:10:51;0.47;;;0.20;;
19587;SDS011;9940;47.252;8.696;2023-03-14T05:13:20;0.32;;;0.15;;
19587;SDS011;9940;47.252;8.696;2023-03-14T05:15:49;1.75;;;0.13;;
19587;SDS011;9940;47.252;8.696;2023-03-14T05:18:20;0.55;;;0.55;;
19587;SDS011;9940;47.252;8.696;2023-03-14T05:20:45;1.40;;;0.20;;
19587;SDS011;9940;47.252;8.696;2023-03-14T05:23:13;0.20;;;0.10;;
19587;SDS011;9940;47.252;8.696;2023-03-14T05:25:39;0.10;;;0.10;;
19587;SDS011;9940;47.252;8.696;2023-03-14T05:28:07;0.80;;;0.20;;
19587;SDS011;9940;47.252;8.696;2023-03-14T05:30:35;1.05;;;0.13;;
19587;SDS011;9940;47.252;8.696;2023-03-14T05:33:00;0.13;;;0.10;;
19587;SDS011;9940;47.252;8.696;2023-03-14T05:35:26;0.10;;;0.10;;
19587;SDS011;9940;47.252;8.696;2023-03-14T05:37:51;2.92;;;0.20;;
19587;SDS011;9940;47.252;8.696;2023-03-14T05:40:17;1.73;;;0.28;;
19587;SDS011;9940;47.252;8.696;2023-03-14T05:42:45;1.25;;;0.40;;
19587;SDS011;9940;47.252;8.696;2023-03-14T05:45:11;0.38;;;0.22;;
19587;SDS011;9940;47.252;8.696;2023-03-14T05:47:39;1.40;;;0.40;;
19587;SDS011;9940;47.252;8.696;2023-03-14T05:50:04;0.50;;;0.40;;
19587;SDS011;9940;47.252;8.696;2023-03-14T05:52:33;2.42;;;0.65;;
19587;SDS011;9940;47.252;8.696;2023-03-14T05:55:01;0.80;;;0.73;;
19587;SDS011;9940;47.252;8.696;2023-03-14T05:57:29;1.27;;;0.90;;
19587;SDS011;9940;47.252;8.696;2023-03-14T05:59:59;1.98;;;1.23;;
19587;SDS011;9940;47.252;8.696;2023-03-14T06:02:25;1.20;;;1.10;;
19587;SDS011;9940;47.252;8.696;2023-03-14T06:04:53;1.20;;;1.10;;
19587;SDS011;9940;47.252;8.696;2023-03-14T06:07:18;1.15;;;0.90;;
19587;SDS011;9940;47.252;8.696;2023-03-14T06:09:44;0.98;;;0.57;;
19587;SDS011;9940;47.252;8.696;2023-03-14T06:12:10;0.95;;;0.70;;
19587;SDS011;9940;47.252;8.696;2023-03-14T06:14:37;1.38;;;0.63;;
19587;SDS011;9940;47.252;8.696;2023-03-14T06:17:05;1.25;;;0.60;;
19587;SDS011;9940;47.252;8.696;2023-03-14T06:19:31;2.50;;;0.70;;
19587;SDS011;9940;47.252;8.696;2023-03-14T06:21:56;1.95;;;0.85;;
19587;SDS011;9940;47.252;8.696;2023-03-14T06:24:25;1.95;;;0.50;;
19587;SDS011;9940;47.252;8.696;2023-03-14T06:26:53;1.42;;;0.70;;
19587;SDS011;9940;47.252;8.696;2023-03-14T06:29:18;1.23;;;0.55;;
19587;SDS011;9940;47.252;8.696;2023-03-14T06:31:47;1.30;;;0.60;;
19587;SDS011;9940;47.252;8.696;2023-03-14T06:34:13;1.15;;;0.60;;
19587;SDS011;9940;47.252;8.696;2023-03-14T06:36:38;0.50;;;0.50;;
19587;SDS011;9940;47.252;8.696;2023-03-14T06:39:06;1.20;;;0.68;;
19587;SDS011;9940;47.252;8.696;2023-03-14T06:41:32;0.75;;;0.70;;
19587;SDS011;9940;47.252;8.696;2023-03-14T06:43:57;0.88;;;0.60;;
19587;SDS011;9940;47.252;8.696;2023-03-14T06:46:25;1.42;;;0.60;;
19587;SDS011;9940;47.252;8.696;2023-03-14T06:48:53;1.17;;;0.80;;
19587;SDS011;9940;47.252;8.696;2023-03-14T06:51:19;2.47;;;0.80;;
19587;SDS011;9940;47.252;8.696;2023-03-14T06:53:44;0.82;;;0.80;;
19587;SDS011;9940;47.252;8.696;2023-03-14T06:56:10;1.40;;;0.75;;
19587;SDS011;9940;47.252;8.696;2023-03-14T06:58:36;2.03;;;1.15;;
19587;SDS011;9940;47.252;8.696;2023-03-14T07:01:01;1.95;;;0.77;;
19587;SDS011;9940;47.252;8.696;2023-03-14T07:03:27;0.63;;;0.55;;
19587;SDS011;9940;47.252;8.696;2023-03-14T07:05:53;1.58;;;0.60;;
19587;SDS011;9940;47.252;8.696;2023-03-14T07:08:19;1.25;;;0.63;;
19587;SDS011;9940;47.252;8.696;2023-03-14T07:10:45;1.40;;;0.60;;
19587;SDS011;9940;47.252;8.696;2023-03-14T07:13:11;1.05;;;0.60;;
19587;SDS011;9940;47.252;8.696;2023-03-14T07:15:37;0.30;;;0.30;;
19587;SDS011;9940;47.252;8.696;2023-03-14T07:18:03;0.65;;;0.50;;
19587;SDS011;9940;47.252;8.696;2023-03-14T07:20:31;0.40;;;0.40;;
19587;SDS011;9940;47.252;8.696;2023-03-14T07:22:57;2.85;;;0.57;;
19587;SDS011;9940;47.252;8.696;2023-03-14T07:25:28;1.25;;;0.63;;
19587;SDS011;9940;47.252;8.696;2023-03-14T07:27:54;4.47;;;0.90;;
19587;SDS011;9940;47.252;8.696;2023-03-14T07:30:20;2.80;;;0.55;;
19587;SDS011;9940;47.252;8.696;2023-03-14T07:32:46;0.70;;;0.60;;
19587;SDS011;9940;47.252;8.696;2023-03-14T07:35:12;1.02;;;0.80;;
19587;SDS011;9940;47.252;8.696;2023-03-14T07:37:41;0.93;;;0.60;;
19587;SDS011;9940;47.252;8.696;2023-03-14T07:40:07;1.77;;;0.65;;
19587;SDS011;9940;47.252;8.696;2023-03-14T07:42:35;0.70;;;0.70;;
19587;SDS011;9940;47.252;8.696;2023-03-14T07:45:01;2.05;;;0.80;;
19587;SDS011;9940;47.252;8.696;2023-03-14T07:47:29;1.70;;;0.90;;
19587;SDS011;9940;47.252;8.696;2023-03-14T07:49:58;1.45;;;0.75;;
19587;SDS011;9940;47.252;8.696;2023-03-14T07:52:24;0.60;;;0.50;;
19587;SDS011;9940;47.252;8.696;2023-03-14T07:54:50;0.30;;;0.30;;
19587;SDS011;9940;47.252;8.696;2023-03-14T07:57:16;0.52;;;0.32;;
19587;SDS011;9940;47.252;8.696;2023-03-14T07:59:44;0.22;;;0.22;;
19587;SDS011;9940;47.252;8.696;2023-03-14T08:02:13;0.77;;;0.30;;
19587;SDS011;9940;47.252;8.696;2023-03-14T08:04:41;0.50;;;0.32;;
19587;SDS011;9940;47.252;8.696;2023-03-14T08:07:07;1.05;;;0.40;;
19587;SDS011;9940;47.252;8.696;2023-03-14T08:09:36;2.00;;;0.57;;
19587;SDS011;9940;47.252;8.696;2023-03-14T08:12:04;3.80;;;0.30;;
19587;SDS011;9940;47.252;8.696;2023-03-14T08:14:32;1.42;;;0.45;;
19587;SDS011;9940;47.252;8.696;2023-03-14T08:16:58;0.57;;;0.35;;
19587;SDS011;9940;47.252;8.696;2023-03-14T08:19:27;0.70;;;0.55;;
19587;SDS011;9940;47.252;8.696;2023-03-14T08:21:53;1.75;;;0.35;;
19587;SDS011;9940;47.252;8.696;2023-03-14T08:24:21;1.10;;;0.40;;
19587;SDS011;9940;47.252;8.696;2023-03-14T08:26:49;0.88;;;0.52;;
19587;SDS011;9940;47.252;8.696;2023-03-14T08:29:15;0.40;;;0.40;;
19587;SDS011;9940;47.252;8.696;2023-03-14T08:31:41;1.25;;;0.57;;
19587;SDS011;9940;47.252;8.696;2023-03-14T08:34:07;0.50;;;0.40;;
19587;SDS011;9940;47.252;8.696;2023-03-14T08:36:36;0.50;;;0.43;;
19587;SDS011;9940;47.252;8.696;2023-03-14T08:39:01;0.77;;;0.60;;
19587;SDS011;9940;47.252;8.696;2023-03-14T08:41:31;1.52;;;0.50;;
19587;SDS011;9940;47.252;8.696;2023-03-14T08:44:02;0.55;;;0.47;;
19587;SDS011;9940;47.252;8.696;2023-03-14T08:46:30;0.57;;;0.50;;
19587;SDS011;9940;47.252;8.696;2023-03-14T08:48:55;1.17;;;0.50;;
19587;SDS011;9940;47.252;8.696;2023-03-14T08:51:21;0.55;;;0.45;;
19587;SDS011;9940;47.252;8.696;2023-03-14T08:53:46;0.95;;;0.50;;
19587;SDS011;9940;47.252;8.696;2023-03-14T08:56:12;0.60;;;0.50;;
19587;SDS011;9940;47.252;8.696;2023-03-14T08:58:38;0.90;;;0.55;;
19587;SDS011;9940;47.252;8.696;2023-03-14T09:01:08;1.02;;;0.40;;
19587;SDS011;9940;47.252;8.696;2023-03-14T09:03:35;0.38;;;0.38;;
19587;SDS011;9940;47.252;8.696;2023-03-14T09:06:07;0.68;;;0.40;;
19587;SDS011;9940;47.252;8.696;2023-03-14T09:08:36;1.02;;;0.50;;
19587;SDS011;9940;47.252;8.696;2023-03-14T09:11:02;0.25;;;0.25;;
19587;SDS011;9940;47.252;8.696;2023-03-14T09:13:30;0.30;;;0.30;;
19587;SDS011;9940;47.252;8.696;2023-03-14T09:15:58;1.33;;;0.40;;
19587;SDS011;9940;47.252;8.696;2023-03-14T09:18:24;1.27;;;0.25;;
19587;SDS011;9940;47.252;8.696;2023-03-14T09:20:52;0.30;;;0.30;;
19587;SDS011;9940;47.252;8.696;2023-03-14T09:23:17;0.60;;;0.20;;
19587;SDS011;9940;47.252;8.696;2023-03-14T09:25:43;1.52;;;0.35;;
19587;SDS011;9940;47.252;8.696;2023-03-14T09:28:09;0.40;;;0.30;;
19587;SDS011;9940;47.252;8.696;2023-03-14T09:30:34;2.63;;;0.40;;
19587;SDS011;9940;47.252;8.696;2023-03-14T09:33:00;0.38;;;0.30;;
19587;SDS011;9940;47.252;8.696;2023-03-14T09:35:26;0.40;;;0.30;;
19587;SDS011;9940;47.252;8.696;2023-03-14T09:37:54;1.50;;;0.30;;
19587;SDS011;9940;47.252;8.696;2023-03-14T09:40:21;0.30;;;0.30;;
19587;SDS011;9940;47.252;8.696;2023-03-14T09:42:52;0.47;;;0.35;;
19587;SDS011;9940;47.252;8.696;2023-03-14T09:45:27;0.95;;;0.20;;
19587;SDS011;9940;47.252;8.696;2023-03-14T09:47:53;1.33;;;0.40;;
19587;SDS011;9940;47.252;8.696;2023-03-14T09:50:23;1.08;;;0.40;;
19587;SDS011;9940;47.252;8.696;2023-03-14T09:52:51;0.47;;;0.38;;
19587;SDS011;9940;47.252;8.696;2023-03-14T09:55:21;2.15;;;0.17;;
19587;SDS011;9940;47.252;8.696;2023-03-14T09:57:50;2.50;;;0.40;;
19587;SDS011;9940;47.252;8.696;2023-03-14T10:00:23;0.45;;;0.30;;
19587;SDS011;9940;47.252;8.696;2023-03-14T10:05:22;0.55;;;0.20;;
19587;SDS011;9940;47.252;8.696;2023-03-14T10:07:51;0.98;;;0.28;;
19587;SDS011;9940;47.252;8.696;2023-03-14T10:10:20;0.30;;;0.30;;
19587;SDS011;9940;47.252;8.696;2023-03-14T10:15:40;1.10;;;0.32;;
19587;SDS011;9940;47.252;8.696;2023-03-14T10:18:10;0.38;;;0.30;;
19587;SDS011;9940;47.252;8.696;2023-03-14T10:20:40;0.50;;;0.40;;
19587;SDS011;9940;47.252;8.696;2023-03-14T10:25:38;2.08;;;0.50;;
19587;SDS011;9940;47.252;8.696;2023-03-14T10:30:50;0.35;;;0.30;;
19587;SDS011;9940;47.252;8.696;2023-03-14T10:38:22;0.65;;;0.38;;
19587;SDS011;9940;47.252;8.696;2023-03-14T10:40:53;0.98;;;0.50;;
19587;SDS011;9940;47.252;8.696;2023-03-14T10:43:25;0.95;;;0.60;;
19587;SDS011;9940;47.252;8.696;2023-03-14T10:45:59;1.58;;;0.57;;
19587;SDS011;9940;47.252;8.696;2023-03-14T10:48:46;2.95;;;0.40;;
19587;SDS011;9940;47.252;8.696;2023-03-14T10:51:18;1.33;;;0.63;;
19587;SDS011;9940;47.252;8.696;2023-03-14T10:53:55;1.30;;;0.60;;
19587;SDS011;9940;47.252;8.696;2023-03-14T10:56:24;1.17;;;0.50;;
19587;SDS011;9940;47.252;8.696;2023-03-14T10:58:52;1.58;;;0.50;;
19587;SDS011;9940;47.252;8.696;2023-03-14T11:09:53;2.03;;;0.50;;
19587;SDS011;9940;47.252;8.696;2023-03-14T11:15:27;0.65;;;0.25;;
19587;SDS011;9940;47.252;8.696;2023-03-14T11:35:04;0.47;;;0.20;;
19587;SDS011;9940;47.252;8.696;2023-03-14T11:37:47;0.63;;;0.20;;
19587;SDS011;9940;47.252;8.696;2023-03-14T11:40:21;0.98;;;0.10;;
19587;SDS011;9940;47.252;8.696;2023-03-14T11:42:49;1.27;;;0.20;;
19587;SDS011;9940;47.252;8.696;2023-03-14T11:45:27;0.30;;;0.13;;
19587;SDS011;9940;47.252;8.696;2023-03-14T11:50:48;1.58;;;0.30;;
19587;SDS011;9940;47.252;8.696;2023-03-14T11:53:22;0.10;;;0.10;;
19587;SDS011;9940;47.252;8.696;2023-03-14T11:56:13;0.10;;;0.00;;
19587;SDS011;9940;47.252;8.696;2023-03-14T11:58:55;0.05;;;0.00;;
19587;SDS011;9940;47.252;8.696;2023-03-14T12:01:35;0.10;;;0.10;;
19587;SDS011;9940;47.252;8.696;2023-03-14T12:04:18;0.10;;;0.10;;
19587;SDS011;9940;47.252;8.696;2023-03-14T12:06:52;0.10;;;0.00;;
19587;SDS011;9940;47.252;8.696;2023-03-14T12:09:20;0.30;;;0.08;;
19587;SDS011;9940;47.252;8.696;2023-03-14T12:12:05;0.00;;;0.00;;
19587;SDS011;9940;47.252;8.696;2023-03-14T12:14:37;0.20;;;0.00;;
19587;SDS011;9940;47.252;8.696;2023-03-14T12:17:18;1.13;;;0.00;;
19587;SDS011;9940;47.252;8.696;2023-03-14T12:19:48;0.00;;;0.00;;
19587;SDS011;9940;47.252;8.696;2023-03-14T12:22:42;0.00;;;0.00;;
19587;SDS011;9940;47.252;8.696;2023-03-14T12:30:38;0.03;;;0.00;;
19587;SDS011;9940;47.252;8.696;2023-03-14T12:38:20;0.45;;;0.08;;
19587;SDS011;9940;47.252;8.696;2023-03-14T12:43:30;0.38;;;0.00;;
19587;SDS011;9940;47.252;8.696;2023-03-14T12:49:16;0.10;;;0.08;;
19587;SDS011;9940;47.252;8.696;2023-03-14T12:56:39;0.03;;;0.00;;
19587;SDS011;9940;47.252;8.696;2023-03-14T13:07:33;0.52;;;0.00;;
19587;SDS011;9940;47.252;8.696;2023-03-14T13:10:29;1.85;;;0.10;;
19587;SDS011;9940;47.252;8.696;2023-03-14T13:12:57;0.30;;;0.05;;
19587;SDS011;9940;47.252;8.696;2023-03-14T13:15:31;0.13;;;0.13;;
19587;SDS011;9940;47.252;8.696;2023-03-14T13:18:02;0.55;;;0.17;;
19587;SDS011;9940;47.252;8.696;2023-03-14T13:20:51;0.17;;;0.10;;
19587;SDS011;9940;47.252;8.696;2023-03-14T13:23:22;0.60;;;0.03;;
19587;SDS011;9940;47.252;8.696;2023-03-14T13:25:49;0.30;;;0.30;;
19587;SDS011;9940;47.252;8.696;2023-03-14T13:28:18;0.77;;;0.10;;
19587;SDS011;9940;47.252;8.696;2023-03-14T13:30:45;0.40;;;0.15;;
19587;SDS011;9940;47.252;8.696;2023-03-14T13:33:18;0.40;;;0.10;;
19587;SDS011;9940;47.252;8.696;2023-03-14T13:35:53;2.17;;;0.55;;
19587;SDS011;9940;47.252;8.696;2023-03-14T13:38:25;1.38;;;0.10;;
19587;SDS011;9940;47.252;8.696;2023-03-14T13:40:55;0.47;;;0.10;;
19587;SDS011;9940;47.252;8.696;2023-03-14T13:43:30;1.08;;;0.10;;
19587;SDS011;9940;47.252;8.696;2023-03-14T13:48:52;0.20;;;0.10;;
19587;SDS011;9940;47.252;8.696;2023-03-14T13:51:23;0.17;;;0.10;;
19587;SDS011;9940;47.252;8.696;2023-03-14T13:53:53;0.05;;;0.00;;
19587;SDS011;9940;47.252;8.696;2023-03-14T13:56:24;0.38;;;0.10;;
19587;SDS011;9940;47.252;8.696;2023-03-14T13:58:57;0.40;;;0.10;;
19587;SDS011;9940;47.252;8.696;2023-03-14T14:01:29;0.30;;;0.20;;
19587;SDS011;9940;47.252;8.696;2023-03-14T14:04:05;0.30;;;0.22;;
19587;SDS011;9940;47.252;8.696;2023-03-14T14:06:39;1.05;;;0.10;;
19587;SDS011;9940;47.252;8.696;2023-03-14T14:09:17;0.10;;;0.00;;
19587;SDS011;9940;47.252;8.696;2023-03-14T14:16:49;0.20;;;0.20;;
19587;SDS011;9940;47.252;8.696;2023-03-14T14:19:16;1.25;;;0.30;;
19587;SDS011;9940;47.252;8.696;2023-03-14T14:21:44;0.55;;;0.20;;
19587;SDS011;9940;47.252;8.696;2023-03-14T14:24:14;0.10;;;0.10;;
19587;SDS011;9940;47.252;8.696;2023-03-14T14:26:41;0.80;;;0.20;;
19587;SDS011;9940;47.252;8.696;2023-03-14T14:29:20;0.57;;;0.10;;
19587;SDS011;9940;47.252;8.696;2023-03-14T14:32:08;0.20;;;0.20;;
19587;SDS011;9940;47.252;8.696;2023-03-14T14:34:42;0.30;;;0.30;;
19587;SDS011;9940;47.252;8.696;2023-03-14T14:37:27;1.13;;;0.22;;
19587;SDS011;9940;47.252;8.696;2023-03-14T14:39:59;0.43;;;0.17;;
19587;SDS011;9940;47.252;8.696;2023-03-14T14:42:32;0.17;;;0.00;;
19587;SDS011;9940;47.252;8.696;2023-03-14T14:44:58;0.00;;;0.00;;
19587;SDS011;9940;47.252;8.696;2023-03-14T14:47:25;0.00;;;0.00;;
19587;SDS011;9940;47.252;8.696;2023-03-14T14:49:53;0.38;;;0.10;;
19587;SDS011;9940;47.252;8.696;2023-03-14T14:52:31;1.13;;;0.13;;
19587;SDS011;9940;47.252;8.696;2023-03-14T14:55:12;0.43;;;0.17;;
19587;SDS011;9940;47.252;8.696;2023-03-14T14:57:52;0.10;;;0.10;;
19587;SDS011;9940;47.252;8.696;2023-03-14T15:00:26;1.33;;;0.17;;
19587;SDS011;9940;47.252;8.696;2023-03-14T15:02:53;0.20;;;0.10;;
19587;SDS011;9940;47.252;8.696;2023-03-14T15:05:24;0.32;;;0.20;;
19587;SDS011;9940;47.252;8.696;2023-03-14T15:07:52;0.15;;;0.03;;
19587;SDS011;9940;47.252;8.696;2023-03-14T15:10:19;0.43;;;0.10;;
19587;SDS011;9940;47.252;8.696;2023-03-14T15:12:48;0.47;;;0.10;;
19587;SDS011;9940;47.252;8.696;2023-03-14T15:15:14;0.73;;;0.20;;
19587;SDS011;9940;47.252;8.696;2023-03-14T15:17:41;0.43;;;0.20;;
19587;SDS011;9940;47.252;8.696;2023-03-14T15:20:10;0.10;;;0.10;;
19587;SDS011;9940;47.252;8.696;2023-03-14T15:22:40;0.20;;;0.10;;
19587;SDS011;9940;47.252;8.696;2023-03-14T15:25:06;0.30;;;0.20;;
19587;SDS011;9940;47.252;8.696;2023-03-14T15:27:33;1.38;;;0.30;;
19587;SDS011;9940;47.252;8.696;2023-03-14T15:29:59;0.40;;;0.20;;
19587;SDS011;9940;47.252;8.696;2023-03-14T15:32:25;0.50;;;0.13;;
19587;SDS011;9940;47.252;8.696;2023-03-14T15:34:52;0.10;;;0.10;;
19587;SDS011;9940;47.252;8.696;2023-03-14T15:37:21;0.30;;;0.20;;
19587;SDS011;9940;47.252;8.696;2023-03-14T15:39:47;1.20;;;0.10;;
19587;SDS011;9940;47.252;8.696;2023-03-14T15:42:13;0.10;;;0.10;;
19587;SDS011;9940;47.252;8.696;2023-03-14T15:44:38;0.10;;;0.10;;
19587;SDS011;9940;47.252;8.696;2023-03-14T15:47:04;0.10;;;0.10;;
19587;SDS011;9940;47.252;8.696;2023-03-14T15:49:31;1.90;;;0.20;;
19587;SDS011;9940;47.252;8.696;2023-03-14T15:51:57;0.70;;;0.20;;
19587;SDS011;9940;47.252;8.696;2023-03-14T15:54:25;0.55;;;0.20;;
19587;SDS011;9940;47.252;8.696;2023-03-14T15:56:53;0.47;;;0.35;;
19587;SDS011;9940;47.252;8.696;2023-03-14T15:59:21;0.52;;;0.25;;
19587;SDS011;9940;47.252;8.696;2023-03-14T16:01:48;1.30;;;0.22;;
19587;SDS011;9940;47.252;8.696;2023-03-14T16:04:16;0.35;;;0.13;;
19587;SDS011;9940;47.252;8.696;2023-03-14T16:06:42;0.55;;;0.32;;
19587;SDS011;9940;47.252;8.696;2023-03-14T16:09:11;0.82;;;0.15;;
19587;SDS011;9940;47.252;8.696;2023-03-14T16:11:37;0.50;;;0.20;;
19587;SDS011;9940;47.252;8.696;2023-03-14T16:14:06;1.75;;;0.28;;
19587;SDS011;9940;47.252;8.696;2023-03-14T16:16:31;0.20;;;0.20;;
19587;SDS011;9940;47.252;8.696;2023-03-14T16:18:57;0.68;;;0.20;;
19587;SDS011;9940;47.252;8.696;2023-03-14T16:21:23;0.85;;;0.10;;
19587;SDS011;9940;47.252;8.696;2023-03-14T16:23:49;0.65;;;0.13;;
19587;SDS011;9940;47.252;8.696;2023-03-14T16:26:16;1.30;;;0.40;;
19587;SDS011;9940;47.252;8.696;2023-03-14T16:28:45;0.30;;;0.20;;
19587;SDS011;9940;47.252;8.696;2023-03-14T16:31:30;0.10;;;0.10;;
19587;SDS011;9940;47.252;8.696;2023-03-14T16:33:55;0.80;;;0.20;;
19587;SDS011;9940;47.252;8.696;2023-03-14T16:36:29;0.10;;;0.10;;
19587;SDS011;9940;47.252;8.696;2023-03-14T16:38:55;0.20;;;0.10;;
19587;SDS011;9940;47.252;8.696;2023-03-14T16:41:20;0.45;;;0.25;;
19587;SDS011;9940;47.252;8.696;2023-03-14T16:43:47;0.25;;;0.15;;
19587;SDS011;9940;47.252;8.696;2023-03-14T16:46:18;0.10;;;0.10;;
19587;SDS011;9940;47.252;8.696;2023-03-14T16:48:47;0.77;;;0.20;;
19587;SDS011;9940;47.252;8.696;2023-03-14T16:51:16;0.63;;;0.10;;
19587;SDS011;9940;47.252;8.696;2023-03-14T16:53:44;0.88;;;0.40;;